x

Albatross Bank - 104nm South Of Kodiak, Ak (46078) Wave Buoy

7:50pm - Thu 3rd Sep 2015 All times are AKDT. -8 hours from GMT.

  • Sig Wave height 6.6ft
  • Swell Direction
  • Peak Period 8s
  • Average Period 6s
  • Wind
    16mph, 20mph gusts
  • Sea Temp 53°f
  • Air Temp 53°f
  • Sea Pressure 1009.3mb
  • Albatross Bank - 104nm South Of Kodiak, Ak
  • Albatross Bank - 104nm South Of Kodiak, Ak

More Historic Weather Station data

Upgrade to MSW Pro to gain access to the past 30 days of data for over 8000 Wavebouys and Weather Stations around the globe.

Join Pro

Comparision Forecast

View Surf forecast
   
Thu 09/03 7:50pm 6.5ft 8s 6s 16 20 mph 1009.3mb 53f 53f
6:50pm 6ft 8s 6s 16 18 mph 1009.6mb 53f 53f
4:50pm 6ft 8s 6s 18 20 mph 1010.1mb 53f 54f
3:50pm 6.5ft 7s 6s 20 25 mph 1010.1mb 53f 54f
2:50pm 6ft 8s 6s 18 22 mph 1010.4mb 53f 54f
1:50pm 6ft 6s 6s 20 27 mph 1010.5mb 53f 54f
12:50pm 6ft 8s 5s 20 25 mph 1010.5mb 53f 55f
11:50am 6ft 6s 5s 20 25 mph 1010.4mb 53f 55f
10:50am 6ft 6s 5s 22 25 mph 1010.6mb 53f 55f
9:50am 5.5ft 6s 5s 22 27 mph 1011mb 53f 55f
8:50am 4.5ft 6s 5s 22 29 mph 1011.2mb 53f 54f
7:50am 4ft 6s 5s 22 25 mph 1012.1mb 53f 54f
6:50am 4ft 6s 5s 16 20 mph 1013.1mb 53f 54f
5:50am 3.5ft 6s 5s 16 18 mph 1013.9mb 52f 54f
4:50am 3.5ft 13s 5s 11 13 mph 1014.5mb 52f 53f
3:50am 3.5ft 13s 5s 11 13 mph 1014.7mb 52f 54f
2:50am 3.5ft 6s 5s 11 13 mph 1015.2mb 52f 54f
1:50am 3.5ft 14s 5s 11 13 mph 1015.3mb 52f 54f
12:50am 3.5ft 12s 5s 13 16 mph 1015.5mb 52f 54f
Wed 09/02 11:50pm 3.5ft 4s 4s 13 16 mph 1015.5mb 52f 54f
10:50pm 3ft 12s 4s 16 18 mph 1015.7mb 52f 54f
9:50pm 3ft 14s 4s 16 20 mph 1015.8mb 52f 54f
8:50pm 2.5ft 12s 5s 16 18 mph 1016.1mb 52f 54f
7:50pm 2.5ft 13s 6s 13 16 mph 1016.5mb 52f 55f
6:50pm 2.5ft 14s 6s 11 13 mph 1017mb 52f 54f
5:50pm 2.5ft 14s 6s 11 13 mph 1017.3mb 53f 54f
4:50pm 2.5ft 12s 6s 9
mph
1017.6mb 53f 54f
3:50pm 2.5ft 14s 6s 9 11 mph 1018.2mb 52f 54f
2:50pm 2.5ft 13s 6s 9 11 mph 1018.4mb 52f 54f
1:50pm 3ft 13s 6s 9 11 mph 1018.7mb 52f 54f
12:50pm 2.5ft 14s 6s 7 9 mph 1018.6mb 52f 53f
11:50am 3ft 14s 6s 9
mph
1018.5mb 52f 53f
10:50am 3ft 14s 6s 9
mph
1018.4mb 52f 53f
9:50am 3ft 14s 6s 7
mph
1018.5mb 52f 53f
8:50am 3ft 13s 5s 9 11 mph 1018.3mb 52f 53f
7:50am 3ft 15s 5s 13 16 mph 1018.1mb 52f 52f
6:50am 3ft 14s 5s 11 13 mph 1018.1mb 52f 52f
5:50am 3ft 13s 5s 9 11 mph 1018.3mb 52f 52f
4:50am 3.5ft 15s 5s 13 18 mph 1018.3mb 51f 52f
3:50am 3.5ft 14s 6s 11 13 mph 1018.3mb 51f 52f
2:50am 3.5ft 10s 5s 11 13 mph 1018.7mb 51f 52f
1:50am 3ft 13s 5s 13 16 mph 1018.7mb 51f 51f
12:50am 3.5ft 13s 5s 16 18 mph 1018.6mb 51f 51f
Tue 09/01 11:50pm 3.5ft 13s 5s 13 16 mph 1018.9mb 51f 51f
10:50pm 3.5ft 13s 5s 13 18 mph 1018.7mb 51f 51f
9:50pm 3.5ft 15s 5s 13 16 mph 1018.8mb 51f 51f
8:50pm 3.5ft 6s 5s 13 16 mph 1018.7mb 51f 51f
7:50pm 4ft 5s 5s 16 18 mph 1018.2mb 51f 51f
6:50pm 4ft 14s 5s 13 16 mph 1018.2mb 51f 52f
5:50pm 4ft 6s 5s 13 18 mph 1018.3mb 51f 52f
4:50pm 4ft 5s 5s 9 13 mph 1018.5mb 51f 52f
3:50pm 3.5ft 6s 5s 4 7 mph 1018.2mb 50f 51f
2:50pm 4ft 7s 5s 7
mph
1018.2mb 49f 51f
1:50pm 4ft 7s 6s 11 13 mph 1018.2mb 49f 51f
12:50pm 4.5ft 7s 6s 7 9 mph 1018mb 49f 50f
11:50am 4ft 7s 6s 9
mph
1018.1mb 49f 50f
10:50am 4.5ft 6s 6s 9
mph
1017.7mb 49f 50f
9:50am 4.5ft 7s 5s 9 11 mph 1017.4mb 49f 50f
8:50am 5ft 6s 5s 11 16 mph 1017mb 49f 50f
7:50am 5ft 7s 5s 18 20 mph 1016.3mb 49f 50f
6:50am 5ft 6s 5s 13 18 mph 1016.1mb 49f 50f
5:50am 5.5ft 6s 5s 13 18 mph 1015.7mb 49f 50f
4:50am 6ft 6s 5s 18 20 mph 1015.5mb 49f 51f
3:50am 5.5ft 7s 6s 16 20 mph 1015.4mb 48f 51f
2:50am 6ft 7s 6s 16 18 mph 1015.3mb 48f 51f
1:50am 6ft 8s 6s 16 18 mph 1015mb 48f 51f
12:50am 7ft 8s 6s 13 18 mph 1014.5mb 48f 51f
Mon 08/31 11:50pm 7.5ft 7s 6s 13 18 mph 1014.4mb 48f 51f
10:50pm 7.5ft 8s 6s 16 22 mph 1014.1mb 48f 51f
9:50pm 8.5ft 8s 6s 18 22 mph 1013.5mb 48f 51f
8:50pm 10ft 8s 6s 20 25 mph 1012.8mb 49f 51f
7:50pm 9.5ft 8s 6s 25 29 mph 1012mb 49f 51f
6:50pm 11ft 8s 7s 27 34 mph 1011mb 49f 51f
5:50pm 9.5ft 8s 6s 27 31 mph 1010.8mb 49f 51f
4:50pm 9.5ft 8s 6s 27 36 mph 1010.2mb 49f 51f
3:50pm 10ft 8s 6s 29 36 mph 1009.7mb 49f 51f
2:50pm 10ft 8s 6s 29 38 mph 1009.1mb 50f 51f
1:50pm 10ft 7s 6s 31 38 mph 1008.7mb 50f 51f
12:50pm 11ft 7s 6s 31 36 mph 1008.6mb 50f 51f
11:50am 10ft 8s 6s 34 40 mph 1008.2mb 50f 51f
10:50am 9ft 8s 6s 29 34 mph 1007.9mb 50f 51f
9:50am 10ft 8s 6s 27 36 mph 1007.7mb 50f 51f
8:50am 10ft 9s 6s 27 34 mph 1007.2mb 50f 51f
7:50am 10ft 8s 7s 29 38 mph 1007.4mb 50f 51f
6:50am 10.5ft 8s 6s 27 31 mph 1006.7mb 50f 51f
5:50am 12ft 9s 7s 22 29 mph 1006.9mb 51f 51f